sensor_id;sensor_type;location;lat;lon;timestamp;P1;durP1;ratioP1;P2;durP2;ratioP2
21103;SDS011;10710;53.398;-1.514;2023-05-02T00:00:25;4.53;;;1.83;;
21103;SDS011;10710;53.398;-1.514;2023-05-02T00:03:10;5.30;;;2.20;;
21103;SDS011;10710;53.398;-1.514;2023-05-02T00:05:55;5.80;;;1.77;;
21103;SDS011;10710;53.398;-1.514;2023-05-02T00:08:39;5.30;;;2.27;;
21103;SDS011;10710;53.398;-1.514;2023-05-02T00:11:24;8.10;;;2.13;;
21103;SDS011;10710;53.398;-1.514;2023-05-02T00:14:09;9.23;;;2.40;;
21103;SDS011;10710;53.398;-1.514;2023-05-02T00:16:54;6.65;;;1.67;;
21103;SDS011;10710;53.398;-1.514;2023-05-02T00:19:39;5.25;;;1.95;;
21103;SDS011;10710;53.398;-1.514;2023-05-02T00:22:24;10.15;;;2.33;;
21103;SDS011;10710;53.398;-1.514;2023-05-02T00:25:08;6.33;;;1.80;;
21103;SDS011;10710;53.398;-1.514;2023-05-02T00:27:58;3.50;;;1.73;;
21103;SDS011;10710;53.398;-1.514;2023-05-02T00:30:43;4.95;;;2.10;;
21103;SDS011;10710;53.398;-1.514;2023-05-02T00:33:28;4.95;;;2.15;;
21103;SDS011;10710;53.398;-1.514;2023-05-02T00:36:13;5.47;;;1.63;;
21103;SDS011;10710;53.398;-1.514;2023-05-02T00:38:58;4.90;;;2.05;;
21103;SDS011;10710;53.398;-1.514;2023-05-02T00:41:43;7.03;;;1.53;;
21103;SDS011;10710;53.398;-1.514;2023-05-02T00:44:28;5.87;;;1.57;;
21103;SDS011;10710;53.398;-1.514;2023-05-02T00:47:13;10.00;;;2.00;;
21103;SDS011;10710;53.398;-1.514;2023-05-02T00:49:58;5.68;;;2.00;;
21103;SDS011;10710;53.398;-1.514;2023-05-02T00:52:44;4.78;;;1.60;;
21103;SDS011;10710;53.398;-1.514;2023-05-02T00:55:29;2.80;;;1.53;;
21103;SDS011;10710;53.398;-1.514;2023-05-02T00:58:15;9.88;;;2.25;;
21103;SDS011;10710;53.398;-1.514;2023-05-02T01:15:19;6.65;;;1.30;;
21103;SDS011;10710;53.398;-1.514;2023-05-02T01:18:05;3.88;;;1.80;;
21103;SDS011;10710;53.398;-1.514;2023-05-02T01:20:54;4.93;;;1.90;;
21103;SDS011;10710;53.398;-1.514;2023-05-02T01:26:45;8.77;;;2.03;;
21103;SDS011;10710;53.398;-1.514;2023-05-02T01:29:35;5.72;;;1.50;;
21103;SDS011;10710;53.398;-1.514;2023-05-02T01:32:21;5.47;;;1.60;;
21103;SDS011;10710;53.398;-1.514;2023-05-02T01:35:07;4.85;;;1.88;;
21103;SDS011;10710;53.398;-1.514;2023-05-02T01:37:54;3.40;;;1.67;;
21103;SDS011;10710;53.398;-1.514;2023-05-02T01:40:40;4.18;;;1.60;;
21103;SDS011;10710;53.398;-1.514;2023-05-02T01:43:27;4.28;;;1.52;;
21103;SDS011;10710;53.398;-1.514;2023-05-02T01:46:13;2.70;;;1.42;;
21103;SDS011;10710;53.398;-1.514;2023-05-02T01:49:02;6.97;;;1.88;;
21103;SDS011;10710;53.398;-1.514;2023-05-02T01:51:48;6.85;;;1.60;;
21103;SDS011;10710;53.398;-1.514;2023-05-02T01:54:33;5.25;;;1.80;;
21103;SDS011;10710;53.398;-1.514;2023-05-02T01:57:20;6.00;;;1.83;;
21103;SDS011;10710;53.398;-1.514;2023-05-02T02:00:08;5.90;;;2.00;;
21103;SDS011;10710;53.398;-1.514;2023-05-02T02:02:55;7.95;;;1.70;;
21103;SDS011;10710;53.398;-1.514;2023-05-02T02:05:40;4.97;;;1.90;;
21103;SDS011;10710;53.398;-1.514;2023-05-02T02:08:25;7.40;;;2.25;;
21103;SDS011;10710;53.398;-1.514;2023-05-02T02:11:10;6.57;;;2.30;;
21103;SDS011;10710;53.398;-1.514;2023-05-02T02:14:00;7.50;;;2.13;;
21103;SDS011;10710;53.398;-1.514;2023-05-02T02:16:47;6.03;;;2.03;;
21103;SDS011;10710;53.398;-1.514;2023-05-02T02:19:34;11.25;;;2.78;;
21103;SDS011;10710;53.398;-1.514;2023-05-02T02:22:19;7.97;;;2.28;;
21103;SDS011;10710;53.398;-1.514;2023-05-02T02:25:05;5.60;;;2.47;;
21103;SDS011;10710;53.398;-1.514;2023-05-02T02:27:51;6.90;;;2.33;;
21103;SDS011;10710;53.398;-1.514;2023-05-02T02:30:36;6.97;;;2.72;;
21103;SDS011;10710;53.398;-1.514;2023-05-02T02:33:21;8.88;;;2.55;;
21103;SDS011;10710;53.398;-1.514;2023-05-02T02:36:10;15.68;;;2.47;;
21103;SDS011;10710;53.398;-1.514;2023-05-02T02:39:13;7.18;;;2.42;;
21103;SDS011;10710;53.398;-1.514;2023-05-02T02:47:53;9.40;;;2.63;;
21103;SDS011;10710;53.398;-1.514;2023-05-02T02:51:06;6.47;;;2.35;;
21103;SDS011;10710;53.398;-1.514;2023-05-02T02:56:46;5.15;;;2.17;;
21103;SDS011;10710;53.398;-1.514;2023-05-02T02:59:34;4.78;;;2.10;;
21103;SDS011;10710;53.398;-1.514;2023-05-02T03:02:25;9.55;;;2.50;;
21103;SDS011;10710;53.398;-1.514;2023-05-02T03:05:11;3.63;;;1.92;;
21103;SDS011;10710;53.398;-1.514;2023-05-02T03:07:57;6.57;;;2.33;;
21103;SDS011;10710;53.398;-1.514;2023-05-02T03:10:43;5.73;;;1.97;;
21103;SDS011;10710;53.398;-1.514;2023-05-02T03:13:27;6.50;;;2.08;;
21103;SDS011;10710;53.398;-1.514;2023-05-02T03:19:03;7.18;;;3.05;;
21103;SDS011;10710;53.398;-1.514;2023-05-02T03:21:48;6.43;;;2.50;;
21103;SDS011;10710;53.398;-1.514;2023-05-02T03:24:33;10.80;;;2.67;;
21103;SDS011;10710;53.398;-1.514;2023-05-02T03:27:19;8.07;;;2.50;;
21103;SDS011;10710;53.398;-1.514;2023-05-02T03:30:04;7.25;;;2.03;;
21103;SDS011;10710;53.398;-1.514;2023-05-02T03:32:49;6.18;;;2.15;;
21103;SDS011;10710;53.398;-1.514;2023-05-02T03:35:34;6.20;;;2.30;;
21103;SDS011;10710;53.398;-1.514;2023-05-02T03:38:19;5.35;;;2.00;;
21103;SDS011;10710;53.398;-1.514;2023-05-02T03:41:04;9.30;;;2.28;;
21103;SDS011;10710;53.398;-1.514;2023-05-02T03:43:49;7.68;;;2.20;;
21103;SDS011;10710;53.398;-1.514;2023-05-02T03:46:37;7.68;;;2.28;;
21103;SDS011;10710;53.398;-1.514;2023-05-02T03:49:21;8.50;;;2.03;;
21103;SDS011;10710;53.398;-1.514;2023-05-02T03:52:06;7.75;;;2.08;;
21103;SDS011;10710;53.398;-1.514;2023-05-02T03:54:51;9.30;;;2.95;;
21103;SDS011;10710;53.398;-1.514;2023-05-02T03:57:35;8.13;;;2.60;;
21103;SDS011;10710;53.398;-1.514;2023-05-02T04:00:21;5.47;;;2.10;;
21103;SDS011;10710;53.398;-1.514;2023-05-02T04:03:05;5.72;;;2.25;;
21103;SDS011;10710;53.398;-1.514;2023-05-02T04:05:51;6.40;;;2.17;;
21103;SDS011;10710;53.398;-1.514;2023-05-02T04:08:35;6.57;;;2.25;;
21103;SDS011;10710;53.398;-1.514;2023-05-02T04:11:20;9.15;;;3.03;;
21103;SDS011;10710;53.398;-1.514;2023-05-02T04:14:05;7.07;;;2.45;;
21103;SDS011;10710;53.398;-1.514;2023-05-02T04:16:50;9.35;;;2.90;;
21103;SDS011;10710;53.398;-1.514;2023-05-02T04:19:35;7.93;;;2.70;;
21103;SDS011;10710;53.398;-1.514;2023-05-02T04:22:19;9.32;;;2.95;;
21103;SDS011;10710;53.398;-1.514;2023-05-02T04:25:04;10.27;;;3.40;;
21103;SDS011;10710;53.398;-1.514;2023-05-02T04:27:50;10.53;;;4.33;;
21103;SDS011;10710;53.398;-1.514;2023-05-02T04:30:34;9.63;;;3.90;;
21103;SDS011;10710;53.398;-1.514;2023-05-02T04:33:19;10.00;;;4.35;;
21103;SDS011;10710;53.398;-1.514;2023-05-02T04:36:04;17.67;;;4.20;;
21103;SDS011;10710;53.398;-1.514;2023-05-02T04:38:49;9.87;;;4.57;;
21103;SDS011;10710;53.398;-1.514;2023-05-02T04:41:33;9.80;;;3.70;;
21103;SDS011;10710;53.398;-1.514;2023-05-02T04:44:18;9.93;;;4.50;;
21103;SDS011;10710;53.398;-1.514;2023-05-02T04:47:03;8.82;;;4.57;;
21103;SDS011;10710;53.398;-1.514;2023-05-02T04:49:47;15.00;;;4.70;;
21103;SDS011;10710;53.398;-1.514;2023-05-02T04:52:32;12.30;;;4.30;;
21103;SDS011;10710;53.398;-1.514;2023-05-02T04:55:16;10.60;;;3.97;;
21103;SDS011;10710;53.398;-1.514;2023-05-02T04:58:01;15.13;;;3.63;;
21103;SDS011;10710;53.398;-1.514;2023-05-02T05:00:47;9.70;;;3.38;;
21103;SDS011;10710;53.398;-1.514;2023-05-02T05:03:35;11.40;;;3.67;;
21103;SDS011;10710;53.398;-1.514;2023-05-02T05:06:19;8.18;;;3.03;;
21103;SDS011;10710;53.398;-1.514;2023-05-02T05:09:05;8.60;;;3.50;;
21103;SDS011;10710;53.398;-1.514;2023-05-02T05:11:50;9.55;;;2.50;;
21103;SDS011;10710;53.398;-1.514;2023-05-02T05:14:35;6.65;;;2.30;;
21103;SDS011;10710;53.398;-1.514;2023-05-02T05:17:20;10.45;;;2.80;;
21103;SDS011;10710;53.398;-1.514;2023-05-02T05:20:05;7.00;;;2.40;;
21103;SDS011;10710;53.398;-1.514;2023-05-02T05:22:51;6.47;;;2.15;;
21103;SDS011;10710;53.398;-1.514;2023-05-02T05:25:36;7.53;;;1.88;;
21103;SDS011;10710;53.398;-1.514;2023-05-02T05:28:21;10.43;;;2.25;;
21103;SDS011;10710;53.398;-1.514;2023-05-02T05:31:06;8.98;;;2.28;;
21103;SDS011;10710;53.398;-1.514;2023-05-02T05:33:51;12.13;;;2.13;;
21103;SDS011;10710;53.398;-1.514;2023-05-02T05:36:37;6.65;;;2.65;;
21103;SDS011;10710;53.398;-1.514;2023-05-02T05:39:23;5.38;;;2.25;;
21103;SDS011;10710;53.398;-1.514;2023-05-02T05:42:08;6.50;;;2.63;;
21103;SDS011;10710;53.398;-1.514;2023-05-02T05:44:53;7.60;;;2.33;;
21103;SDS011;10710;53.398;-1.514;2023-05-02T05:47:38;5.80;;;2.38;;
21103;SDS011;10710;53.398;-1.514;2023-05-02T05:50:22;7.37;;;3.23;;
21103;SDS011;10710;53.398;-1.514;2023-05-02T05:53:07;7.20;;;2.40;;
21103;SDS011;10710;53.398;-1.514;2023-05-02T05:55:52;4.97;;;1.73;;
21103;SDS011;10710;53.398;-1.514;2023-05-02T05:58:37;5.97;;;1.95;;
21103;SDS011;10710;53.398;-1.514;2023-05-02T06:01:22;5.55;;;2.00;;
21103;SDS011;10710;53.398;-1.514;2023-05-02T06:04:07;6.78;;;2.45;;
21103;SDS011;10710;53.398;-1.514;2023-05-02T06:06:52;6.55;;;1.80;;
21103;SDS011;10710;53.398;-1.514;2023-05-02T06:09:37;8.05;;;1.80;;
21103;SDS011;10710;53.398;-1.514;2023-05-02T06:12:22;6.87;;;1.40;;
21103;SDS011;10710;53.398;-1.514;2023-05-02T06:15:07;7.72;;;1.80;;
21103;SDS011;10710;53.398;-1.514;2023-05-02T06:17:51;6.47;;;2.03;;
21103;SDS011;10710;53.398;-1.514;2023-05-02T06:20:36;5.63;;;1.48;;
21103;SDS011;10710;53.398;-1.514;2023-05-02T06:23:21;5.30;;;1.52;;
21103;SDS011;10710;53.398;-1.514;2023-05-02T06:26:05;5.57;;;1.50;;
21103;SDS011;10710;53.398;-1.514;2023-05-02T06:28:50;4.53;;;1.40;;
21103;SDS011;10710;53.398;-1.514;2023-05-02T06:31:35;8.25;;;1.65;;
21103;SDS011;10710;53.398;-1.514;2023-05-02T06:34:19;7.07;;;1.60;;
21103;SDS011;10710;53.398;-1.514;2023-05-02T06:37:04;4.55;;;1.20;;
21103;SDS011;10710;53.398;-1.514;2023-05-02T06:39:49;6.28;;;1.48;;
21103;SDS011;10710;53.398;-1.514;2023-05-02T06:42:34;3.17;;;1.27;;
21103;SDS011;10710;53.398;-1.514;2023-05-02T06:45:19;3.90;;;1.30;;
21103;SDS011;10710;53.398;-1.514;2023-05-02T06:48:04;12.73;;;1.90;;
21103;SDS011;10710;53.398;-1.514;2023-05-02T06:50:50;5.07;;;1.33;;
21103;SDS011;10710;53.398;-1.514;2023-05-02T06:53:36;3.80;;;1.27;;
21103;SDS011;10710;53.398;-1.514;2023-05-02T06:56:22;9.67;;;1.70;;
21103;SDS011;10710;53.398;-1.514;2023-05-02T06:59:08;5.13;;;1.70;;
21103;SDS011;10710;53.398;-1.514;2023-05-02T07:01:53;5.88;;;1.17;;
21103;SDS011;10710;53.398;-1.514;2023-05-02T07:04:38;5.00;;;1.80;;
21103;SDS011;10710;53.398;-1.514;2023-05-02T07:07:22;5.93;;;1.10;;
21103;SDS011;10710;53.398;-1.514;2023-05-02T07:10:07;4.65;;;1.17;;
21103;SDS011;10710;53.398;-1.514;2023-05-02T07:12:52;4.82;;;1.17;;
21103;SDS011;10710;53.398;-1.514;2023-05-02T07:15:37;2.67;;;0.95;;
21103;SDS011;10710;53.398;-1.514;2023-05-02T07:18:22;5.40;;;1.20;;
21103;SDS011;10710;53.398;-1.514;2023-05-02T07:21:06;8.27;;;1.65;;
21103;SDS011;10710;53.398;-1.514;2023-05-02T07:23:51;7.38;;;2.05;;
21103;SDS011;10710;53.398;-1.514;2023-05-02T07:26:38;2.38;;;1.10;;
21103;SDS011;10710;53.398;-1.514;2023-05-02T07:29:24;3.60;;;1.10;;
21103;SDS011;10710;53.398;-1.514;2023-05-02T07:32:08;3.53;;;1.30;;
21103;SDS011;10710;53.398;-1.514;2023-05-02T07:34:54;2.95;;;1.52;;
21103;SDS011;10710;53.398;-1.514;2023-05-02T07:37:40;4.00;;;1.67;;
21103;SDS011;10710;53.398;-1.514;2023-05-02T07:40:24;3.97;;;1.08;;
21103;SDS011;10710;53.398;-1.514;2023-05-02T07:43:09;11.85;;;5.38;;
21103;SDS011;10710;53.398;-1.514;2023-05-02T07:45:54;5.88;;;2.30;;
21103;SDS011;10710;53.398;-1.514;2023-05-02T07:48:39;6.30;;;1.40;;
21103;SDS011;10710;53.398;-1.514;2023-05-02T07:51:25;4.60;;;2.05;;
21103;SDS011;10710;53.398;-1.514;2023-05-02T07:54:14;4.82;;;1.40;;
21103;SDS011;10710;53.398;-1.514;2023-05-02T07:57:00;6.00;;;2.30;;
21103;SDS011;10710;53.398;-1.514;2023-05-02T07:59:46;3.72;;;1.63;;
21103;SDS011;10710;53.398;-1.514;2023-05-02T08:02:30;5.80;;;1.60;;
21103;SDS011;10710;53.398;-1.514;2023-05-02T08:05:15;5.95;;;1.60;;
21103;SDS011;10710;53.398;-1.514;2023-05-02T08:08:00;5.07;;;2.08;;
21103;SDS011;10710;53.398;-1.514;2023-05-02T08:10:45;5.57;;;1.70;;
21103;SDS011;10710;53.398;-1.514;2023-05-02T08:13:29;5.25;;;1.55;;
21103;SDS011;10710;53.398;-1.514;2023-05-02T08:16:14;7.97;;;1.58;;
21103;SDS011;10710;53.398;-1.514;2023-05-02T08:18:59;7.80;;;2.10;;
21103;SDS011;10710;53.398;-1.514;2023-05-02T08:21:43;8.77;;;2.00;;
21103;SDS011;10710;53.398;-1.514;2023-05-02T08:24:28;7.45;;;1.45;;
21103;SDS011;10710;53.398;-1.514;2023-05-02T08:27:14;8.35;;;2.15;;
21103;SDS011;10710;53.398;-1.514;2023-05-02T08:29:58;4.07;;;1.70;;
21103;SDS011;10710;53.398;-1.514;2023-05-02T08:32:44;7.25;;;3.33;;
21103;SDS011;10710;53.398;-1.514;2023-05-02T08:35:29;5.75;;;1.80;;
21103;SDS011;10710;53.398;-1.514;2023-05-02T08:38:14;5.95;;;1.75;;
21103;SDS011;10710;53.398;-1.514;2023-05-02T08:40:59;6.07;;;1.63;;
21103;SDS011;10710;53.398;-1.514;2023-05-02T08:43:44;7.23;;;2.23;;
21103;SDS011;10710;53.398;-1.514;2023-05-02T08:46:29;10.95;;;2.42;;
21103;SDS011;10710;53.398;-1.514;2023-05-02T08:49:14;3.95;;;1.60;;
21103;SDS011;10710;53.398;-1.514;2023-05-02T08:51:59;4.40;;;1.60;;
21103;SDS011;10710;53.398;-1.514;2023-05-02T08:54:45;4.05;;;1.45;;
21103;SDS011;10710;53.398;-1.514;2023-05-02T08:57:30;3.85;;;1.60;;
21103;SDS011;10710;53.398;-1.514;2023-05-02T09:00:15;9.45;;;1.67;;
21103;SDS011;10710;53.398;-1.514;2023-05-02T09:06:04;4.32;;;1.58;;
21103;SDS011;10710;53.398;-1.514;2023-05-02T09:08:50;8.48;;;2.13;;
21103;SDS011;10710;53.398;-1.514;2023-05-02T09:11:36;4.95;;;1.80;;
21103;SDS011;10710;53.398;-1.514;2023-05-02T09:14:21;11.60;;;2.00;;
21103;SDS011;10710;53.398;-1.514;2023-05-02T09:17:06;3.15;;;1.50;;
21103;SDS011;10710;53.398;-1.514;2023-05-02T09:19:58;3.33;;;1.65;;
21103;SDS011;10710;53.398;-1.514;2023-05-02T09:22:47;6.35;;;1.63;;
21103;SDS011;10710;53.398;-1.514;2023-05-02T09:25:35;5.75;;;1.33;;
21103;SDS011;10710;53.398;-1.514;2023-05-02T09:28:34;2.92;;;1.52;;
21103;SDS011;10710;53.398;-1.514;2023-05-02T09:34:09;7.18;;;1.50;;
21103;SDS011;10710;53.398;-1.514;2023-05-02T09:36:54;4.60;;;1.50;;
21103;SDS011;10710;53.398;-1.514;2023-05-02T09:39:40;3.75;;;1.48;;
21103;SDS011;10710;53.398;-1.514;2023-05-02T09:42:31;3.23;;;1.70;;
21103;SDS011;10710;53.398;-1.514;2023-05-02T09:45:19;4.83;;;1.50;;
21103;SDS011;10710;53.398;-1.514;2023-05-02T09:48:04;2.97;;;1.25;;
21103;SDS011;10710;53.398;-1.514;2023-05-02T09:50:49;5.82;;;1.70;;
21103;SDS011;10710;53.398;-1.514;2023-05-02T09:53:33;5.60;;;1.63;;
21103;SDS011;10710;53.398;-1.514;2023-05-02T09:56:26;4.43;;;1.67;;
21103;SDS011;10710;53.398;-1.514;2023-05-02T09:59:12;5.70;;;1.40;;
21103;SDS011;10710;53.398;-1.514;2023-05-02T10:02:02;3.65;;;1.40;;
21103;SDS011;10710;53.398;-1.514;2023-05-02T10:04:47;3.30;;;1.35;;
21103;SDS011;10710;53.398;-1.514;2023-05-02T19:58:19;5.77;;;2.50;;
21103;SDS011;10710;53.398;-1.514;2023-05-02T22:11:20;9.75;;;3.30;;
21103;SDS011;10710;53.398;-1.514;2023-05-02T22:17:32;6.03;;;3.30;;
21103;SDS011;10710;53.398;-1.514;2023-05-02T22:23:41;8.98;;;3.70;;
21103;SDS011;10710;53.398;-1.514;2023-05-02T22:30:12;8.32;;;3.72;;
21103;SDS011;10710;53.398;-1.514;2023-05-02T22:43:28;6.68;;;3.10;;
